Boulogne, France

11:37 AM CEST on September 02, 2014 (GMT +0200)
Paris-Plage | Change Station
CLOSE
Current Station
Airport
Location: Le Touquet,
Elevation: 46 ft
Nearby Weather Stations

Elev 46 ft 50.51 °N, 1.62 °E | Updated 7 minutes ago

Scattered Clouds
Scattered Clouds
66 °F
Feels Like 66 °F
N
4
Wind Variable Wind from NNW

Today
High -- | Low -- °F
--% Chance of Precip.
Yesterday
High -- | Low -- °F
Precip. -- in
7:08 AM 8:36 PM
Waxing Crescent, 49% visible
Pressure 30.18 in
Visibility 6.2 miles
Clouds Few 1600 ft
Scattered Clouds 2300 ft
Dew Point 59 °F
Humidity 78%
Rainfall 0.00 in
Snow Depth Not available.
UV 4 out of 12
Pollen Not available.
Air Quality Not available.
Flu Activity Not available.
METAR LFAT 020930Z AUTO 33003KT 9999 FEW016 SCT023 19/15 Q1022

More Conditions Fewer Conditions

Pressure 30.18 in
Visibility 6.2 miles
Clouds Few 1600 ft
Scattered Clouds 2300 ft
Dew Point 59 °F
Humidity 78%
Rainfall 0.00 in
Snow Depth Not available.
UV 4 out of 12
Pollen Not available.
Air Quality Not available.
Flu Activity Not available.
METAR LFAT 020930Z AUTO 33003KT 9999 FEW016 SCT023 19/15 Q1022

More Conditions Fewer Conditions

10-Day Weather Forecast

Almanac

Astronomy

Sep. 02, 2014 Rise Set
Actual Time 7:08 AM CEST 8:36 PM CEST
Civil Twilight 6:34 AM CEST 9:10 PM CEST
Nautical Twilight 5:52 AM CEST 9:52 PM CEST
Astronomical Twilight 5:06 AM CEST 10:37 PM CEST
Moon 3:23 PM CEST No Moon Set
Length of Visible Light 14h 36m
Length of Day
13h 28m
Tomorrow will be 3m 43s shorter.
Waxing Crescent, 49% of the Moon is Illuminated
Today
Waxing Crescent
Sep 2
First Quarter
Sep 8
Full
Sep 15
Last Quarter
Sep 24
New

Yesterday's Extremes

Country Highs Country Lows

Community

WunderPhotos

Upload Photos

1,749,587 photos uploaded!

WunderBlogs® & News

Nearby

Snow Depth

Not available.

Earthquake Activity

City Distance Mag. Time & Date
No recent earthquake activity has been reported nearby.
Minimum magnitude displayed is 2.5.

Coastal Water Temperatures

Place Temperature
No Stations Reporting

Nearby Weather Stations